Time;durP1;ratioP1;P1;durP2;ratioP2;P2;SDS_P1;SDS_P2;PMS_P1;PMS_P2;Temp;Humidity;BMP_temperature;BMP_pressure;BME280_temperature;BME280_humidity;BME280_pressure;Samples;Min_cycle;Max_cycle;Signal;HPM_P1;HPM_P2
2023/08/04 00:01:12;;;;;;;2.47;0.70;;;;;;;;;;5050642;28;20064;-68
2023/08/04 00:03:39;;;;;;;2.50;0.77;;;;;;;;;;5048783;28;20053;-66
2023/08/04 00:06:09;;;;;;;2.38;0.60;;;;;;;;;;5043641;28;20064;-66
2023/08/04 00:08:36;;;;;;;3.65;0.65;;;;;;;;;;5050023;28;20045;-66
2023/08/04 00:11:04;;;;;;;2.63;0.50;;;;;;;;;;5049388;28;20057;-66
2023/08/04 00:13:33;;;;;;;3.85;0.52;;;;;;;;;;5049323;28;20045;-66
2023/08/04 00:16:05;;;;;;;2.25;0.60;;;;;;;;;;5050238;28;20057;-67
2023/08/04 00:18:32;;;;;;;2.17;0.47;;;;;;;;;;5048780;28;20147;-67
2023/08/04 00:20:59;;;;;;;0.80;0.40;;;;;;;;;;5048915;28;20049;-67
2023/08/04 00:23:27;;;;;;;1.30;0.50;;;;;;;;;;5050294;28;20377;-66
2023/08/04 00:25:54;;;;;;;1.05;0.40;;;;;;;;;;5046406;28;20166;-68
2023/08/04 00:28:22;;;;;;;1.70;0.40;;;;;;;;;;5050561;28;20138;-65
2023/08/04 00:30:50;;;;;;;1.45;0.50;;;;;;;;;;5046618;28;20458;-66
2023/08/04 00:33:18;;;;;;;1.10;0.40;;;;;;;;;;5050334;28;20053;-66
2023/08/04 00:35:45;;;;;;;0.90;0.38;;;;;;;;;;5048135;28;20057;-65
2023/08/04 00:38:12;;;;;;;1.13;0.43;;;;;;;;;;5050690;28;20048;-66
2023/08/04 00:40:39;;;;;;;0.85;0.40;;;;;;;;;;5048407;28;20048;-66
2023/08/04 00:43:07;;;;;;;1.88;0.40;;;;;;;;;;5049738;28;20049;-65
2023/08/04 00:45:34;;;;;;;1.17;0.40;;;;;;;;;;5040500;28;20056;-66
2023/08/04 00:48:03;;;;;;;0.40;0.38;;;;;;;;;;5048887;28;20056;-67
2023/08/04 00:50:32;;;;;;;0.70;0.40;;;;;;;;;;5047004;28;20049;-66
2023/08/04 00:53:00;;;;;;;1.40;0.40;;;;;;;;;;5045839;28;20086;-65
2023/08/04 00:55:27;;;;;;;2.25;0.45;;;;;;;;;;5047604;28;20052;-66
2023/08/04 00:57:56;;;;;;;1.33;0.38;;;;;;;;;;5054504;28;20056;-66
2023/08/04 01:00:23;;;;;;;0.63;0.40;;;;;;;;;;5046383;28;20083;-68
2023/08/04 01:02:50;;;;;;;1.58;0.60;;;;;;;;;;5049372;28;20056;-66
2023/08/04 01:05:19;;;;;;;2.13;0.47;;;;;;;;;;5049266;28;20400;-66
2023/08/04 01:07:49;;;;;;;0.65;0.35;;;;;;;;;;5049192;28;20052;-66
2023/08/04 01:10:20;;;;;;;1.08;0.60;;;;;;;;;;5045570;28;20056;-66
2023/08/04 01:12:51;;;;;;;1.38;0.50;;;;;;;;;;5044982;28;20049;-67
2023/08/04 01:15:19;;;;;;;1.00;0.43;;;;;;;;;;5048351;28;20503;-68
2023/08/04 01:17:46;;;;;;;1.58;0.50;;;;;;;;;;5047598;28;20060;-66
2023/08/04 01:20:13;;;;;;;1.10;0.43;;;;;;;;;;5039099;28;20404;-66
2023/08/04 01:22:42;;;;;;;0.55;0.38;;;;;;;;;;5042287;28;20049;-65
2023/08/04 01:25:09;;;;;;;1.60;0.80;;;;;;;;;;5048998;28;20045;-66
2023/08/04 01:27:39;;;;;;;5.35;0.57;;;;;;;;;;5047929;28;20584;-66
2023/08/04 01:30:07;;;;;;;6.63;1.30;;;;;;;;;;5049744;28;20512;-67
2023/08/04 01:32:34;;;;;;;1.50;0.68;;;;;;;;;;5052049;28;20055;-67
2023/08/04 01:35:02;;;;;;;2.38;0.75;;;;;;;;;;5046146;28;20098;-68
2023/08/04 01:37:29;;;;;;;2.97;0.88;;;;;;;;;;5047472;28;20055;-66
2023/08/04 01:39:58;;;;;;;1.27;0.73;;;;;;;;;;5047452;28;20048;-66
2023/08/04 01:42:25;;;;;;;1.65;0.93;;;;;;;;;;5048945;28;20079;-67
2023/08/04 01:44:52;;;;;;;2.65;0.70;;;;;;;;;;5045459;28;20053;-66
2023/08/04 01:47:19;;;;;;;5.70;0.80;;;;;;;;;;5040822;28;20057;-66
2023/08/04 01:49:46;;;;;;;3.17;0.80;;;;;;;;;;5039672;28;20057;-66
2023/08/04 01:52:13;;;;;;;2.17;0.70;;;;;;;;;;5041194;28;20045;-66
2023/08/04 01:54:40;;;;;;;3.17;0.80;;;;;;;;;;5045913;28;20048;-66
2023/08/04 01:57:09;;;;;;;2.78;0.70;;;;;;;;;;5041388;28;20068;-67
2023/08/04 01:59:36;;;;;;;1.60;0.70;;;;;;;;;;5046528;28;20045;-65
2023/08/04 02:02:03;;;;;;;2.50;0.75;;;;;;;;;;5046749;28;20621;-66
2023/08/04 02:04:31;;;;;;;1.92;0.57;;;;;;;;;;5038691;28;20672;-66
2023/08/04 02:06:58;;;;;;;5.90;0.90;;;;;;;;;;5047933;28;20053;-66
2023/08/04 02:09:27;;;;;;;1.75;0.70;;;;;;;;;;5041343;28;20049;-66
2023/08/04 02:11:55;;;;;;;1.98;0.60;;;;;;;;;;5045709;28;20472;-67
2023/08/04 02:14:23;;;;;;;4.35;1.00;;;;;;;;;;5045366;28;20048;-67
2023/08/04 02:16:51;;;;;;;6.65;0.80;;;;;;;;;;5048627;28;20133;-67
2023/08/04 02:19:18;;;;;;;2.88;0.70;;;;;;;;;;5046200;28;20143;-66
2023/08/04 02:21:45;;;;;;;2.65;0.90;;;;;;;;;;5047948;28;20733;-66
2023/08/04 02:24:12;;;;;;;2.22;0.80;;;;;;;;;;5042898;28;20041;-66
2023/08/04 02:26:40;;;;;;;1.27;0.80;;;;;;;;;;5044541;28;20061;-67
2023/08/04 02:29:07;;;;;;;1.98;0.80;;;;;;;;;;5042605;28;20053;-66
2023/08/04 02:31:36;;;;;;;4.88;1.00;;;;;;;;;;5046197;28;20475;-66
2023/08/04 02:34:03;;;;;;;1.52;0.70;;;;;;;;;;5048629;28;20041;-66
2023/08/04 02:36:30;;;;;;;1.27;0.60;;;;;;;;;;5045305;28;20538;-66
2023/08/04 02:38:58;;;;;;;4.63;0.80;;;;;;;;;;5047054;28;20106;-66
2023/08/04 02:41:25;;;;;;;3.17;0.82;;;;;;;;;;5049987;28;20057;-67
2023/08/04 02:43:52;;;;;;;3.05;1.00;;;;;;;;;;5055715;28;20052;-67
2023/08/04 02:46:22;;;;;;;4.45;0.88;;;;;;;;;;5045544;28;20052;-66
2023/08/04 02:48:51;;;;;;;1.58;0.70;;;;;;;;;;5047590;28;20110;-66
2023/08/04 02:51:18;;;;;;;2.33;0.88;;;;;;;;;;5045626;28;20136;-67
2023/08/04 02:53:46;;;;;;;3.20;1.08;;;;;;;;;;5048474;28;20407;-66
2023/08/04 02:56:14;;;;;;;2.13;1.10;;;;;;;;;;5042051;28;20052;-66
2023/08/04 02:58:43;;;;;;;4.60;0.82;;;;;;;;;;5048393;28;20049;-66
2023/08/04 03:01:10;;;;;;;2.55;0.90;;;;;;;;;;5054886;28;20488;-67
2023/08/04 03:03:38;;;;;;;3.60;1.00;;;;;;;;;;5045953;28;20060;-66
2023/08/04 03:06:07;;;;;;;1.45;1.10;;;;;;;;;;5047210;28;20053;-66
2023/08/04 03:08:34;;;;;;;2.95;1.05;;;;;;;;;;5046799;28;20559;-67
2023/08/04 03:11:01;;;;;;;2.80;1.15;;;;;;;;;;5050905;28;20128;-68
2023/08/04 03:13:30;;;;;;;3.05;1.17;;;;;;;;;;5051098;28;20060;-66
2023/08/04 03:15:59;;;;;;;2.85;0.95;;;;;;;;;;5050149;28;20451;-66
2023/08/04 03:18:26;;;;;;;6.57;1.10;;;;;;;;;;5047503;28;20491;-66
2023/08/04 03:20:54;;;;;;;3.67;0.90;;;;;;;;;;5048303;28;20060;-66
2023/08/04 03:23:23;;;;;;;1.88;0.90;;;;;;;;;;5050765;28;20519;-67
2023/08/04 03:25:51;;;;;;;6.50;0.90;;;;;;;;;;5050914;28;20081;-67
2023/08/04 03:28:18;;;;;;;3.85;0.90;;;;;;;;;;5051079;28;20045;-66
2023/08/04 03:30:45;;;;;;;3.95;1.02;;;;;;;;;;5052065;28;20052;-66
2023/08/04 03:33:13;;;;;;;2.28;0.85;;;;;;;;;;5046540;28;20047;-66
2023/08/04 03:35:40;;;;;;;5.90;1.00;;;;;;;;;;5050891;28;20045;-65
2023/08/04 03:38:07;;;;;;;1.77;0.80;;;;;;;;;;5049075;28;20045;-66
2023/08/04 03:40:36;;;;;;;3.78;1.20;;;;;;;;;;5049359;28;20465;-66
2023/08/04 03:43:04;;;;;;;7.55;1.08;;;;;;;;;;5049719;28;20551;-68
2023/08/04 03:45:31;;;;;;;5.03;1.13;;;;;;;;;;5051466;28;20392;-67
2023/08/04 03:47:58;;;;;;;4.22;1.20;;;;;;;;;;5049400;28;20049;-66
2023/08/04 03:50:26;;;;;;;2.25;0.80;;;;;;;;;;5049461;28;20150;-66
2023/08/04 03:52:53;;;;;;;1.63;1.05;;;;;;;;;;5050943;28;20060;-67
2023/08/04 03:55:20;;;;;;;4.47;0.95;;;;;;;;;;5049098;28;20041;-66
2023/08/04 03:57:49;;;;;;;2.58;0.90;;;;;;;;;;5050445;28;20063;-67
2023/08/04 04:00:16;;;;;;;2.85;0.88;;;;;;;;;;5049777;28;20053;-66
2023/08/04 04:02:44;;;;;;;1.75;0.90;;;;;;;;;;5047407;28;20075;-66
2023/08/04 04:05:11;;;;;;;1.30;0.80;;;;;;;;;;5050724;28;20094;-66
2023/08/04 04:07:39;;;;;;;4.38;1.00;;;;;;;;;;5049352;28;20053;-66
2023/08/04 04:10:06;;;;;;;5.30;0.90;;;;;;;;;;5050108;28;20059;-66
2023/08/04 04:12:35;;;;;;;3.35;0.80;;;;;;;;;;5048675;28;20049;-66
2023/08/04 04:15:04;;;;;;;2.45;1.00;;;;;;;;;;5043649;28;20038;-66
2023/08/04 04:17:32;;;;;;;4.30;1.10;;;;;;;;;;5043404;28;20167;-67
2023/08/04 04:19:59;;;;;;;2.05;1.00;;;;;;;;;;5042850;28;20449;-66
2023/08/04 04:22:26;;;;;;;3.20;1.40;;;;;;;;;;5042761;28;20507;-66
2023/08/04 04:24:53;;;;;;;2.88;0.77;;;;;;;;;;5049579;28;20442;-66
2023/08/04 04:27:20;;;;;;;4.50;1.00;;;;;;;;;;5042448;28;20053;-66
2023/08/04 04:29:48;;;;;;;5.10;1.20;;;;;;;;;;5056760;28;20052;-66
2023/08/04 04:32:16;;;;;;;1.70;0.82;;;;;;;;;;5050192;28;20132;-66
2023/08/04 04:34:44;;;;;;;1.73;0.80;;;;;;;;;;5045623;28;20071;-66
2023/08/04 04:37:11;;;;;;;2.15;1.10;;;;;;;;;;5050820;28;20053;-66
2023/08/04 04:39:38;;;;;;;2.53;0.82;;;;;;;;;;5048738;28;20067;-66
2023/08/04 04:42:06;;;;;;;2.15;0.73;;;;;;;;;;5049454;28;20045;-66
2023/08/04 04:44:33;;;;;;;1.38;0.80;;;;;;;;;;5047260;28;20045;-66
2023/08/04 04:47:00;;;;;;;3.63;0.88;;;;;;;;;;5050887;28;20052;-66
2023/08/04 04:49:29;;;;;;;2.40;0.80;;;;;;;;;;5045205;28;20069;-66
2023/08/04 04:51:56;;;;;;;3.10;1.27;;;;;;;;;;5047526;28;20126;-67
2023/08/04 04:54:24;;;;;;;2.65;0.95;;;;;;;;;;5049417;28;20071;-67
2023/08/04 04:56:51;;;;;;;2.75;0.80;;;;;;;;;;5045389;28;20036;-67
2023/08/04 04:59:18;;;;;;;3.80;0.95;;;;;;;;;;5045627;28;20045;-66
2023/08/04 05:01:45;;;;;;;1.80;0.80;;;;;;;;;;5046775;28;20049;-66
2023/08/04 05:04:12;;;;;;;2.60;1.10;;;;;;;;;;5049968;28;20408;-67
2023/08/04 05:06:41;;;;;;;4.68;1.10;;;;;;;;;;5044264;28;20082;-66
2023/08/04 05:09:08;;;;;;;2.22;0.98;;;;;;;;;;5049575;28;20060;-67
2023/08/04 05:11:36;;;;;;;4.15;1.10;;;;;;;;;;5038829;28;20052;-66
2023/08/04 05:14:03;;;;;;;3.97;1.00;;;;;;;;;;5045658;28;20083;-66
2023/08/04 05:16:30;;;;;;;4.30;0.98;;;;;;;;;;5049360;28;20043;-67
2023/08/04 05:18:57;;;;;;;1.92;1.10;;;;;;;;;;5049400;28;20080;-67
2023/08/04 05:21:25;;;;;;;2.85;1.02;;;;;;;;;;5047297;28;20049;-66
2023/08/04 05:23:54;;;;;;;4.32;1.20;;;;;;;;;;5046259;28;20200;-67
2023/08/04 05:26:22;;;;;;;1.60;0.80;;;;;;;;;;5043765;28;20071;-66
2023/08/04 05:28:49;;;;;;;3.03;0.90;;;;;;;;;;5046961;28;21728;-66
2023/08/04 05:31:16;;;;;;;4.07;1.10;;;;;;;;;;5043471;28;20045;-66
2023/08/04 05:33:43;;;;;;;6.13;1.23;;;;;;;;;;5039293;28;20049;-67
2023/08/04 05:36:12;;;;;;;5.00;1.13;;;;;;;;;;5044710;28;20443;-66
2023/08/04 05:38:39;;;;;;;5.00;1.25;;;;;;;;;;5043285;28;20058;-67
2023/08/04 05:41:08;;;;;;;2.28;1.10;;;;;;;;;;5034713;28;20081;-66
2023/08/04 05:43:35;;;;;;;3.42;1.00;;;;;;;;;;5043920;28;20045;-67
2023/08/04 05:46:03;;;;;;;1.23;0.70;;;;;;;;;;5045686;28;20052;-67
2023/08/04 05:48:31;;;;;;;2.60;0.90;;;;;;;;;;5047222;28;20049;-66
2023/08/04 05:50:58;;;;;;;1.10;0.70;;;;;;;;;;5045481;28;20768;-66
2023/08/04 05:53:25;;;;;;;1.33;0.80;;;;;;;;;;5043398;28;20052;-67
2023/08/04 05:55:53;;;;;;;3.92;0.82;;;;;;;;;;5046352;28;20064;-67
2023/08/04 05:58:21;;;;;;;2.88;0.50;;;;;;;;;;5046977;28;20048;-66
2023/08/04 06:00:48;;;;;;;2.70;0.90;;;;;;;;;;5045486;28;20048;-67
2023/08/04 06:03:16;;;;;;;0.90;0.47;;;;;;;;;;5047905;28;20053;-67
2023/08/04 06:05:43;;;;;;;2.47;0.60;;;;;;;;;;5043355;28;20045;-67
2023/08/04 06:08:11;;;;;;;1.17;0.50;;;;;;;;;;5042722;28;20064;-67
2023/08/04 06:10:39;;;;;;;3.50;0.60;;;;;;;;;;5040479;28;20522;-68
2023/08/04 06:13:06;;;;;;;0.95;0.60;;;;;;;;;;5046130;28;20053;-67
2023/08/04 06:15:35;;;;;;;1.40;0.63;;;;;;;;;;5044652;28;20044;-67
2023/08/04 06:18:02;;;;;;;2.25;0.60;;;;;;;;;;5039554;28;20060;-67
2023/08/04 06:20:30;;;;;;;3.15;0.85;;;;;;;;;;5039815;28;20049;-67
2023/08/04 06:22:57;;;;;;;2.67;0.85;;;;;;;;;;5041534;28;20132;-66
2023/08/04 06:25:24;;;;;;;4.20;0.70;;;;;;;;;;5038677;28;20045;-66
2023/08/04 06:27:53;;;;;;;1.98;0.70;;;;;;;;;;5044915;28;20056;-68
2023/08/04 06:30:20;;;;;;;1.98;0.80;;;;;;;;;;5036365;28;20041;-67
2023/08/04 06:32:49;;;;;;;6.45;1.10;;;;;;;;;;5042824;28;20037;-67
2023/08/04 06:35:17;;;;;;;1.70;0.60;;;;;;;;;;5041602;28;20045;-66
2023/08/04 06:37:44;;;;;;;3.97;0.82;;;;;;;;;;5036745;28;20049;-66
2023/08/04 06:40:12;;;;;;;3.08;0.80;;;;;;;;;;5039352;28;20049;-66
2023/08/04 06:42:39;;;;;;;2.33;0.82;;;;;;;;;;5041666;28;20048;-67
2023/08/04 06:45:07;;;;;;;3.60;0.88;;;;;;;;;;5040873;28;20049;-67
2023/08/04 06:47:34;;;;;;;5.43;0.88;;;;;;;;;;5045361;28;20041;-67
2023/08/04 06:50:04;;;;;;;8.23;0.98;;;;;;;;;;5043139;28;20103;-67
2023/08/04 06:52:31;;;;;;;3.47;1.10;;;;;;;;;;5042655;28;20055;-66
2023/08/04 06:54:59;;;;;;;4.10;1.05;;;;;;;;;;5044967;28;20041;-66
2023/08/04 06:57:26;;;;;;;5.18;0.93;;;;;;;;;;5041386;28;20464;-67
2023/08/04 06:59:53;;;;;;;6.10;0.80;;;;;;;;;;5043446;28;20056;-68
2023/08/04 07:02:20;;;;;;;3.42;0.80;;;;;;;;;;5044977;28;20060;-66
2023/08/04 07:04:48;;;;;;;1.38;0.70;;;;;;;;;;5038333;28;20389;-67
2023/08/04 07:07:17;;;;;;;3.28;0.80;;;;;;;;;;5039608;28;20160;-67
2023/08/04 07:09:44;;;;;;;5.90;1.00;;;;;;;;;;5040959;28;20059;-67
2023/08/04 07:12:11;;;;;;;4.18;0.90;;;;;;;;;;5044232;28;20068;-66
2023/08/04 07:14:38;;;;;;;2.05;0.70;;;;;;;;;;5043616;28;20181;-67
2023/08/04 07:17:06;;;;;;;2.03;0.68;;;;;;;;;;5040728;28;20068;-67
2023/08/04 07:19:33;;;;;;;5.53;0.95;;;;;;;;;;5042443;28;20049;-67
2023/08/04 07:22:00;;;;;;;3.42;0.88;;;;;;;;;;5044728;28;20053;-67
2023/08/04 07:24:29;;;;;;;4.32;0.80;;;;;;;;;;5045150;28;20523;-67
2023/08/04 07:26:57;;;;;;;4.38;1.17;;;;;;;;;;5045165;28;20045;-67
2023/08/04 07:29:24;;;;;;;5.85;1.13;;;;;;;;;;5047527;28;20531;-67
2023/08/04 07:31:51;;;;;;;1.63;0.77;;;;;;;;;;5052724;28;20155;-69
2023/08/04 07:34:18;;;;;;;4.70;0.88;;;;;;;;;;5037672;28;20140;-68
2023/08/04 07:36:46;;;;;;;2.42;0.95;;;;;;;;;;5045138;28;20088;-67
2023/08/04 07:39:13;;;;;;;2.42;0.80;;;;;;;;;;5045977;28;20044;-68
2023/08/04 07:41:42;;;;;;;1.60;0.70;;;;;;;;;;5046710;28;20051;-68
2023/08/04 07:44:09;;;;;;;2.40;1.00;;;;;;;;;;5046372;28;20110;-69
2023/08/04 07:46:36;;;;;;;5.05;0.85;;;;;;;;;;5039728;28;20397;-67
2023/08/04 07:49:04;;;;;;;2.33;0.90;;;;;;;;;;5038164;28;20095;-67
2023/08/04 07:51:31;;;;;;;2.13;0.82;;;;;;;;;;5037854;28;20055;-68
2023/08/04 07:53:58;;;;;;;1.40;0.75;;;;;;;;;;5048314;28;20155;-67
2023/08/04 07:56:25;;;;;;;3.50;0.75;;;;;;;;;;5044989;28;20425;-67
2023/08/04 07:58:54;;;;;;;2.28;0.98;;;;;;;;;;5047973;28;20056;-67
2023/08/04 08:01:21;;;;;;;4.28;0.82;;;;;;;;;;5046264;28;20045;-69
2023/08/04 08:03:48;;;;;;;0.80;0.50;;;;;;;;;;5050275;28;20142;-67
2023/08/04 08:06:16;;;;;;;1.95;1.00;;;;;;;;;;5046166;28;20050;-69
2023/08/04 08:08:43;;;;;;;4.53;0.55;;;;;;;;;;5047597;28;20053;-66
2023/08/04 08:11:10;;;;;;;2.78;0.70;;;;;;;;;;5047356;28;20080;-69
2023/08/04 08:13:38;;;;;;;3.15;0.70;;;;;;;;;;5047009;28;20064;-68
2023/08/04 08:16:11;;;;;;;2.65;0.73;;;;;;;;;;5049565;28;20103;-67
2023/08/04 08:18:38;;;;;;;4.88;1.75;;;;;;;;;;5044429;28;20053;-67
2023/08/04 08:21:06;;;;;;;4.78;0.93;;;;;;;;;;5046028;28;20629;-67
2023/08/04 08:23:33;;;;;;;3.10;0.73;;;;;;;;;;5045978;28;20045;-67
2023/08/04 08:26:01;;;;;;;4.45;1.02;;;;;;;;;;5047220;28;20041;-67
2023/08/04 08:28:28;;;;;;;5.75;1.05;;;;;;;;;;5044538;28;20053;-67
2023/08/04 08:30:55;;;;;;;4.82;1.00;;;;;;;;;;5038723;28;20050;-69
2023/08/04 08:33:24;;;;;;;3.42;1.25;;;;;;;;;;5042060;28;20045;-66
2023/08/04 08:35:51;;;;;;;2.95;0.98;;;;;;;;;;5048184;28;20086;-69
2023/08/04 08:38:19;;;;;;;4.05;1.15;;;;;;;;;;5046997;28;20057;-69
2023/08/04 08:40:48;;;;;;;5.03;1.13;;;;;;;;;;5039104;28;20084;-68
2023/08/04 08:43:15;;;;;;;4.00;1.02;;;;;;;;;;5047901;28;20098;-68
2023/08/04 12:11:47;;;;;;;5.35;1.20;;;;;;;;;;5084413;27;20496;-69
2023/08/04 12:14:15;;;;;;;2.67;1.17;;;;;;;;;;5084542;28;20048;-70
2023/08/04 12:16:52;;;;;;;6.72;1.20;;;;;;;;;;5083093;28;20135;-70
2023/08/04 12:19:20;;;;;;;3.35;1.23;;;;;;;;;;5083868;28;20364;-70
2023/08/04 12:21:47;;;;;;;2.70;1.00;;;;;;;;;;5084676;28;20325;-69
2023/08/04 12:24:14;;;;;;;3.45;1.40;;;;;;;;;;5084247;28;20055;-69
2023/08/04 12:26:43;;;;;;;3.65;1.20;;;;;;;;;;5084702;28;20082;-71
2023/08/04 12:29:10;;;;;;;7.30;1.30;;;;;;;;;;5084348;28;20051;-69
2023/08/04 12:31:38;;;;;;;3.85;1.23;;;;;;;;;;5082112;28;20060;-70
2023/08/04 12:34:05;;;;;;;2.55;1.10;;;;;;;;;;5083086;28;20766;-70
2023/08/04 12:36:34;;;;;;;1.73;0.95;;;;;;;;;;5081834;28;20052;-71
2023/08/04 12:39:03;;;;;;;2.78;1.00;;;;;;;;;;5083387;28;20066;-67
2023/08/04 12:41:30;;;;;;;4.30;1.60;;;;;;;;;;5081736;28;20048;-68
2023/08/04 12:43:59;;;;;;;3.33;1.30;;;;;;;;;;5083306;28;20056;-67
2023/08/04 12:46:27;;;;;;;4.00;1.48;;;;;;;;;;5083820;28;20044;-67
2023/08/04 12:48:54;;;;;;;3.58;1.30;;;;;;;;;;5084737;28;20432;-69
2023/08/04 12:51:21;;;;;;;4.97;1.27;;;;;;;;;;5082186;28;20380;-68
2023/08/04 12:53:49;;;;;;;4.15;1.10;;;;;;;;;;5078506;28;20071;-67
2023/08/04 12:56:16;;;;;;;3.15;1.15;;;;;;;;;;5084248;28;20048;-70
2023/08/04 12:58:44;;;;;;;4.03;1.10;;;;;;;;;;5073821;28;20110;-68
2023/08/04 13:01:12;;;;;;;4.00;1.30;;;;;;;;;;5084429;28;20463;-68
2023/08/04 13:03:40;;;;;;;5.05;1.30;;;;;;;;;;5084321;28;20052;-69
2023/08/04 13:06:07;;;;;;;4.55;1.48;;;;;;;;;;5084508;28;20036;-68
2023/08/04 13:08:34;;;;;;;2.72;1.00;;;;;;;;;;5083899;28;20403;-68
2023/08/04 13:11:01;;;;;;;3.47;1.00;;;;;;;;;;5081884;28;20044;-67
2023/08/04 13:13:29;;;;;;;2.58;1.13;;;;;;;;;;5083796;28;20127;-68
2023/08/04 13:15:56;;;;;;;5.25;1.55;;;;;;;;;;5072770;28;20044;-69
2023/08/04 13:18:25;;;;;;;3.35;1.13;;;;;;;;;;5083663;28;20131;-69
2023/08/04 13:20:52;;;;;;;4.75;1.42;;;;;;;;;;5081623;28;20048;-68
2023/08/04 13:23:19;;;;;;;2.97;1.20;;;;;;;;;;5068514;28;20045;-69
2023/08/04 13:25:47;;;;;;;4.50;1.50;;;;;;;;;;5070768;28;20078;-68
2023/08/04 13:28:14;;;;;;;2.00;1.00;;;;;;;;;;5071506;28;20505;-68
2023/08/04 13:30:44;;;;;;;3.20;1.35;;;;;;;;;;5066450;28;21018;-69
2023/08/04 13:33:11;;;;;;;4.38;1.50;;;;;;;;;;5068056;28;20048;-68
2023/08/04 13:35:40;;;;;;;4.57;1.40;;;;;;;;;;5069524;28;20063;-69
2023/08/04 13:38:07;;;;;;;3.22;1.17;;;;;;;;;;5065402;28;20471;-69
2023/08/04 13:40:34;;;;;;;2.65;1.13;;;;;;;;;;5068330;28;20055;-69
2023/08/04 13:43:01;;;;;;;3.20;1.40;;;;;;;;;;5062500;28;20059;-71
2023/08/04 13:45:29;;;;;;;4.45;1.40;;;;;;;;;;5066866;28;20051;-69
2023/08/04 13:47:57;;;;;;;3.30;1.20;;;;;;;;;;5064643;28;20041;-69
2023/08/04 13:50:24;;;;;;;4.13;1.10;;;;;;;;;;5062628;28;20047;-69
2023/08/04 13:52:52;;;;;;;4.20;1.20;;;;;;;;;;5068623;28;20048;-69
2023/08/04 13:55:20;;;;;;;2.15;0.93;;;;;;;;;;5064883;28;20131;-69
2023/08/04 13:57:47;;;;;;;2.45;0.90;;;;;;;;;;5064633;28;20051;-69
2023/08/04 14:00:15;;;;;;;5.80;1.02;;;;;;;;;;5068249;28;20519;-68
2023/08/04 14:02:42;;;;;;;2.38;1.10;;;;;;;;;;5070065;28;20530;-69
2023/08/04 14:05:09;;;;;;;2.30;1.13;;;;;;;;;;5067286;28;20053;-69
2023/08/04 14:07:41;;;;;;;3.80;1.00;;;;;;;;;;5065266;28;20063;-71
2023/08/04 14:10:10;;;;;;;1.90;1.02;;;;;;;;;;5064084;28;20132;-69
2023/08/04 14:12:38;;;;;;;2.20;1.10;;;;;;;;;;5064457;28;20480;-70
2023/08/04 14:15:08;;;;;;;5.75;1.20;;;;;;;;;;5062945;28;20044;-70
2023/08/04 14:17:35;;;;;;;1.65;0.98;;;;;;;;;;5065479;28;20044;-69
2023/08/04 14:20:05;;;;;;;2.17;0.85;;;;;;;;;;5062289;28;20511;-70
2023/08/04 14:22:32;;;;;;;2.55;1.13;;;;;;;;;;5063242;28;20826;-71
2023/08/04 14:24:59;;;;;;;2.47;0.88;;;;;;;;;;5070263;28;20125;-69
2023/08/04 14:27:28;;;;;;;2.35;0.90;;;;;;;;;;5066846;28;20127;-69
2023/08/04 14:29:55;;;;;;;1.95;1.00;;;;;;;;;;5063966;28;20056;-69
2023/08/04 14:32:22;;;;;;;1.77;0.82;;;;;;;;;;5061591;28;20047;-69
2023/08/04 14:34:49;;;;;;;1.95;0.90;;;;;;;;;;5068866;28;20048;-69
2023/08/04 14:37:17;;;;;;;3.50;0.80;;;;;;;;;;5066135;28;20092;-69
2023/08/04 14:39:44;;;;;;;2.38;1.40;;;;;;;;;;5063879;28;20634;-69
2023/08/04 14:42:11;;;;;;;2.60;0.98;;;;;;;;;;5057656;28;20049;-69
2023/08/04 14:44:40;;;;;;;2.22;1.10;;;;;;;;;;5062623;28;20052;-69
2023/08/04 14:47:07;;;;;;;1.05;0.82;;;;;;;;;;5064505;28;20057;-69
2023/08/04 14:49:36;;;;;;;1.85;0.90;;;;;;;;;;5068749;28;20067;-69
2023/08/04 14:52:03;;;;;;;1.80;0.90;;;;;;;;;;5065307;28;20051;-70
2023/08/04 14:54:31;;;;;;;4.13;1.10;;;;;;;;;;5064305;28;20064;-69
2023/08/04 14:56:58;;;;;;;2.28;1.08;;;;;;;;;;5062750;28;20052;-70
2023/08/04 14:59:25;;;;;;;2.70;0.80;;;;;;;;;;5072060;28;20059;-69
2023/08/04 15:01:54;;;;;;;3.55;1.10;;;;;;;;;;5064017;28;20492;-69
2023/08/04 15:04:21;;;;;;;2.15;0.88;;;;;;;;;;5067298;28;20047;-68
2023/08/04 15:06:48;;;;;;;2.75;1.02;;;;;;;;;;5064635;28;20119;-68
2023/08/04 15:09:15;;;;;;;1.73;0.93;;;;;;;;;;5067445;28;20052;-69
2023/08/04 15:11:43;;;;;;;1.67;0.90;;;;;;;;;;5067253;28;20062;-67
2023/08/04 15:14:11;;;;;;;6.38;1.23;;;;;;;;;;5068177;28;20051;-69
2023/08/04 15:16:38;;;;;;;3.08;1.20;;;;;;;;;;5068682;28;20055;-68
2023/08/04 15:19:07;;;;;;;4.07;1.13;;;;;;;;;;5068618;28;20048;-70
2023/08/04 15:21:34;;;;;;;2.45;1.20;;;;;;;;;;5055570;28;20049;-69
2023/08/04 15:24:01;;;;;;;2.42;1.02;;;;;;;;;;5066513;28;20059;-70
2023/08/04 15:26:29;;;;;;;3.42;1.00;;;;;;;;;;5064227;28;20159;-69
2023/08/04 15:28:56;;;;;;;2.05;1.02;;;;;;;;;;5057305;28;20048;-70
2023/08/04 15:31:23;;;;;;;2.45;1.10;;;;;;;;;;5063450;28;20067;-69
2023/08/04 15:33:50;;;;;;;2.47;1.10;;;;;;;;;;5058314;28;20056;-69
2023/08/04 15:36:19;;;;;;;3.13;1.17;;;;;;;;;;5065899;28;20044;-69
2023/08/04 15:38:46;;;;;;;2.33;1.10;;;;;;;;;;5068259;28;20052;-69
2023/08/04 15:41:14;;;;;;;3.13;1.13;;;;;;;;;;5067570;28;20051;-69
2023/08/04 15:43:42;;;;;;;2.97;1.40;;;;;;;;;;5065985;28;20055;-69
2023/08/04 15:46:09;;;;;;;3.97;1.20;;;;;;;;;;5063322;28;20052;-70
2023/08/04 15:48:37;;;;;;;2.85;1.00;;;;;;;;;;5068261;28;20056;-69
2023/08/04 15:51:04;;;;;;;3.13;1.25;;;;;;;;;;5067070;28;20055;-70
2023/08/04 15:53:33;;;;;;;2.53;1.17;;;;;;;;;;5067476;28;20620;-69
2023/08/04 15:56:00;;;;;;;4.30;1.15;;;;;;;;;;5066567;28;20044;-69
2023/08/04 15:58:28;;;;;;;3.55;1.23;;;;;;;;;;5066225;28;20048;-69
2023/08/04 16:00:55;;;;;;;1.92;0.90;;;;;;;;;;5065803;28;20040;-70
2023/08/04 16:03:22;;;;;;;4.40;1.40;;;;;;;;;;5064625;28;20061;-68
2023/08/04 16:05:57;;;;;;;2.25;1.20;;;;;;;;;;5066844;28;20048;-69
2023/08/04 16:08:25;;;;;;;3.03;1.20;;;;;;;;;;5063836;28;20381;-69
2023/08/04 16:10:58;;;;;;;3.22;1.02;;;;;;;;;;5064800;28;20040;-69
2023/08/04 16:13:26;;;;;;;1.65;1.20;;;;;;;;;;5065838;28;20055;-69
2023/08/04 16:15:59;;;;;;;3.53;1.45;;;;;;;;;;5064476;28;20053;-69
2023/08/04 16:18:27;;;;;;;2.47;1.08;;;;;;;;;;5064915;28;20446;-70
2023/08/04 16:20:54;;;;;;;3.10;1.40;;;;;;;;;;5065597;28;20040;-69
2023/08/04 16:23:22;;;;;;;2.40;1.05;;;;;;;;;;5066546;28;20395;-69
2023/08/04 16:25:49;;;;;;;3.38;1.02;;;;;;;;;;5065791;28;20044;-69
2023/08/04 16:28:18;;;;;;;1.58;1.02;;;;;;;;;;5067144;28;20539;-69
2023/08/04 16:30:45;;;;;;;3.80;1.60;;;;;;;;;;5071699;28;20041;-69
2023/08/04 16:33:13;;;;;;;3.47;1.25;;;;;;;;;;5067086;28;20052;-69
2023/08/04 16:35:42;;;;;;;3.40;1.20;;;;;;;;;;5067962;28;20129;-70
2023/08/04 16:38:10;;;;;;;6.35;1.20;;;;;;;;;;5065477;28;20053;-69
2023/08/04 16:40:37;;;;;;;2.90;1.13;;;;;;;;;;5067761;28;20529;-69
2023/08/04 16:43:04;;;;;;;5.10;1.23;;;;;;;;;;5065994;28;20052;-69
2023/08/04 16:45:34;;;;;;;4.53;1.30;;;;;;;;;;5065971;28;20057;-69
2023/08/04 16:48:01;;;;;;;2.70;1.10;;;;;;;;;;5066260;28;20078;-67
2023/08/04 16:50:29;;;;;;;3.65;1.00;;;;;;;;;;5066774;28;20547;-68
2023/08/04 16:52:56;;;;;;;2.38;1.13;;;;;;;;;;5066283;28;20106;-69
2023/08/04 16:55:23;;;;;;;3.33;1.45;;;;;;;;;;5067220;28;20044;-69
2023/08/04 16:57:51;;;;;;;5.65;1.55;;;;;;;;;;5066659;28;20496;-69
2023/08/04 17:00:18;;;;;;;2.28;1.00;;;;;;;;;;5069835;28;20043;-68
2023/08/04 17:02:47;;;;;;;6.93;1.38;;;;;;;;;;5072066;28;20072;-68
2023/08/04 17:05:14;;;;;;;3.75;1.30;;;;;;;;;;5065936;28;20059;-70
2023/08/04 17:07:41;;;;;;;6.75;1.83;;;;;;;;;;5066531;28;20056;-70
2023/08/04 17:10:08;;;;;;;3.35;1.10;;;;;;;;;;5065750;28;20064;-70
2023/08/04 17:12:36;;;;;;;3.83;1.17;;;;;;;;;;5060474;28;20123;-70
2023/08/04 17:15:03;;;;;;;3.90;1.17;;;;;;;;;;5063063;28;20543;-70
2023/08/04 17:17:32;;;;;;;4.50;1.30;;;;;;;;;;5064510;28;20056;-70
2023/08/04 17:20:00;;;;;;;4.35;1.52;;;;;;;;;;5066666;28;20392;-69
2023/08/04 17:22:28;;;;;;;2.53;0.90;;;;;;;;;;5066445;28;20515;-70
2023/08/04 17:24:55;;;;;;;1.60;1.08;;;;;;;;;;5063640;28;20413;-70
2023/08/04 17:27:22;;;;;;;1.60;1.10;;;;;;;;;;5071149;28;20098;-70
2023/08/04 17:29:49;;;;;;;2.55;1.00;;;;;;;;;;5068041;28;20048;-69
2023/08/04 17:32:17;;;;;;;4.50;1.10;;;;;;;;;;5062993;28;20037;-70
2023/08/04 17:34:45;;;;;;;4.68;1.30;;;;;;;;;;5063520;28;20049;-70
2023/08/04 17:37:13;;;;;;;3.78;1.13;;;;;;;;;;5066976;28;20102;-71
2023/08/04 17:39:41;;;;;;;1.55;1.27;;;;;;;;;;5065538;28;20443;-70
2023/08/04 17:42:08;;;;;;;3.08;1.30;;;;;;;;;;5066629;28;20052;-69
2023/08/04 17:44:35;;;;;;;2.88;1.17;;;;;;;;;;5069777;28;20045;-69
2023/08/04 17:47:03;;;;;;;2.42;1.00;;;;;;;;;;5065682;28;20048;-70
2023/08/04 17:49:30;;;;;;;2.45;1.20;;;;;;;;;;5067699;28;20052;-69
2023/08/04 17:51:57;;;;;;;1.92;1.10;;;;;;;;;;5065143;28;20049;-70
2023/08/04 17:54:26;;;;;;;1.42;1.05;;;;;;;;;;5067549;28;20522;-71
2023/08/04 17:56:53;;;;;;;5.72;1.20;;;;;;;;;;5065725;28;20049;-72
2023/08/04 17:59:20;;;;;;;1.05;0.95;;;;;;;;;;5059162;28;20040;-70
2023/08/04 18:01:48;;;;;;;2.75;1.00;;;;;;;;;;5062935;28;20045;-68
2023/08/04 18:04:15;;;;;;;2.40;1.13;;;;;;;;;;5065113;28;20048;-74
2023/08/04 18:06:42;;;;;;;2.00;1.20;;;;;;;;;;5063672;28;20048;-66
2023/08/04 18:09:09;;;;;;;1.45;1.05;;;;;;;;;;5070019;28;20629;-64
2023/08/04 18:11:38;;;;;;;4.82;1.38;;;;;;;;;;5066973;28;20057;-71